Aérodrome :
LOGIN :

S'inscrire | Disclaimer

   EN    FR    IT 

 










Légende :    VFR   VFR Marginal   IFR   IFR Intensif   IFR Très Intensif
Visi : 
Plafond : 
>= 8 km
>= 3000ft
5 à 8 km
1000 à 3000 ft
1500m à 5 km
500 à 1000 ft
800 à 1500m
200 à 500 ft
< 800m
< 200 ft
Symboles :   Orages  Brouillard  Fortes neiges  Fortes précipitations  Vent > 20 kt
SIGMETs :   Divers  Orages  Givrage  Turbulence  Onde Orograph.  Cendres Volcan.







- Altitude de l'aérodrome : 82 ft
- Code IATA : QIE
- Voir les cartes d'approche


LFMI - Istres

DERNIER METAR :
  • 141500Z AUTO 32027KT CAVOK 29/14 Q1012 BECMG 34025G40KT

METARs EXPIRÉS :
  • 141430Z AUTO 33024KT CAVOK 29/14 Q1012 BECMG 34025G40KT
  • 141400Z AUTO 33026KT CAVOK 29/14 Q1012 TEMPO 32025G35KT
  • 141330Z AUTO 32025KT CAVOK 29/13 Q1012 TEMPO 32025G35KT
  • 141300Z AUTO 31023KT CAVOK 29/13 Q1012 NOSIG
  • 141230Z AUTO 32024KT CAVOK 29/14 Q1013 NOSIG

TAF TAF LFMI
Valide du 14 à 15h jusqu'au 15 à 15h UTC


141400Z 1415/1515 34025G40KT CAVOK
BECMG 1423/1501 36020G30KT
BECMG 1503/1504 36015KT
BECMG 1510/1512 36005KT
Pas de NOTAMs connus pour ce terrain.



MET'MAP, la Météo Aéronautique d'un coup d'oeil ! - Copyright ORBIFLY Décembre 2007 - Disclaimer

ORBIFLY MET'MAP TEAM :

Programmation & Développement : Alexandra Zaïnal
Conception & Développement : Baudouin d'Aumeries
Co-Programmation & Développement : Marc-Olivier Méhu
Soutien technique & logistique : Manuel Goepfert

Contact : metmap@orbifly.com




SOURCES & CREDITS :

   NOAA